sensor_id;sensor_type;location;lat;lon;timestamp;pressure;altitude;pressure_sealevel;temperature;humidity
44127;BME280;29786;50.798;7.302;2023-08-06T00:00:36;98130;;;15.55;100
44127;BME280;29786;50.798;7.302;2023-08-06T00:01:36;98130;;;15.46;100
44127;BME280;29786;50.798;7.302;2023-08-06T00:02:35;98130;;;15.41;100
44127;BME280;29786;50.798;7.302;2023-08-06T00:03:35;98130;;;15.39;100
44127;BME280;29786;50.798;7.302;2023-08-06T00:04:35;98130;;;15.37;100
44127;BME280;29786;50.798;7.302;2023-08-06T00:05:35;98130;;;15.44;100
44127;BME280;29786;50.798;7.302;2023-08-06T00:06:35;98130;;;15.49;100
44127;BME280;29786;50.798;7.302;2023-08-06T00:07:35;98120;;;15.59;100
44127;BME280;29786;50.798;7.302;2023-08-06T00:08:35;98120;;;15.56;100
44127;BME280;29786;50.798;7.302;2023-08-06T00:09:37;98120;;;15.63;100
44127;BME280;29786;50.798;7.302;2023-08-06T00:10:36;98120;;;15.56;100
44127;BME280;29786;50.798;7.302;2023-08-06T00:11:35;98120;;;15.56;100
44127;BME280;29786;50.798;7.302;2023-08-06T00:12:36;98110;;;15.59;100
44127;BME280;29786;50.798;7.302;2023-08-06T00:13:35;98110;;;15.58;100
44127;BME280;29786;50.798;7.302;2023-08-06T00:14:35;98120;;;15.52;100
44127;BME280;29786;50.798;7.302;2023-08-06T00:15:36;98120;;;15.59;100
44127;BME280;29786;50.798;7.302;2023-08-06T00:16:35;98120;;;15.53;100
44127;BME280;29786;50.798;7.302;2023-08-06T00:17:36;98120;;;15.52;100
44127;BME280;29786;50.798;7.302;2023-08-06T00:18:36;98120;;;15.54;100
44127;BME280;29786;50.798;7.302;2023-08-06T00:19:35;98120;;;15.5;100
44127;BME280;29786;50.798;7.302;2023-08-06T00:20:38;98120;;;15.5;100
44127;BME280;29786;50.798;7.302;2023-08-06T00:21:36;98120;;;15.45;100
44127;BME280;29786;50.798;7.302;2023-08-06T00:22:36;98120;;;15.46;100
44127;BME280;29786;50.798;7.302;2023-08-06T00:23:36;98120;;;15.49;100
44127;BME280;29786;50.798;7.302;2023-08-06T00:24:35;98120;;;15.51;100
44127;BME280;29786;50.798;7.302;2023-08-06T00:25:36;98120;;;15.46;100
44127;BME280;29786;50.798;7.302;2023-08-06T00:26:36;98120;;;15.51;100
44127;BME280;29786;50.798;7.302;2023-08-06T00:27:36;98130;;;15.5;100
44127;BME280;29786;50.798;7.302;2023-08-06T00:28:36;98130;;;15.52;100
44127;BME280;29786;50.798;7.302;2023-08-06T00:29:34;98130;;;15.52;100
44127;BME280;29786;50.798;7.302;2023-08-06T00:30:36;98120;;;15.49;100
44127;BME280;29786;50.798;7.302;2023-08-06T00:31:36;98130;;;15.48;100
44127;BME280;29786;50.798;7.302;2023-08-06T00:32:36;98130;;;15.44;100
44127;BME280;29786;50.798;7.302;2023-08-06T00:33:35;98130;;;15.48;100
44127;BME280;29786;50.798;7.302;2023-08-06T00:34:36;98130;;;15.5;100
44127;BME280;29786;50.798;7.302;2023-08-06T00:35:36;98130;;;15.52;100
44127;BME280;29786;50.798;7.302;2023-08-06T00:36:35;98130;;;15.58;100
44127;BME280;29786;50.798;7.302;2023-08-06T00:37:35;98130;;;15.62;100
44127;BME280;29786;50.798;7.302;2023-08-06T00:38:35;98130;;;15.68;100
44127;BME280;29786;50.798;7.302;2023-08-06T00:39:35;98130;;;15.62;100
44127;BME280;29786;50.798;7.302;2023-08-06T00:40:36;98130;;;15.53;100
44127;BME280;29786;50.798;7.302;2023-08-06T00:41:36;98130;;;15.53;100
44127;BME280;29786;50.798;7.302;2023-08-06T00:42:36;98140;;;15.51;100
44127;BME280;29786;50.798;7.302;2023-08-06T00:43:35;98130;;;15.47;100
44127;BME280;29786;50.798;7.302;2023-08-06T00:44:35;98130;;;15.45;100
44127;BME280;29786;50.798;7.302;2023-08-06T00:45:36;98130;;;15.41;100
44127;BME280;29786;50.798;7.302;2023-08-06T00:46:36;98130;;;15.43;100
44127;BME280;29786;50.798;7.302;2023-08-06T00:47:35;98130;;;15.37;100
44127;BME280;29786;50.798;7.302;2023-08-06T00:48:35;98130;;;15.39;100
44127;BME280;29786;50.798;7.302;2023-08-06T00:49:36;98130;;;15.5;100
44127;BME280;29786;50.798;7.302;2023-08-06T00:50:35;98130;;;15.43;100
44127;BME280;29786;50.798;7.302;2023-08-06T00:51:36;98130;;;15.5;100
44127;BME280;29786;50.798;7.302;2023-08-06T00:52:36;98120;;;15.45;100
44127;BME280;29786;50.798;7.302;2023-08-06T00:53:34;98120;;;15.52;100
44127;BME280;29786;50.798;7.302;2023-08-06T00:54:35;98120;;;15.45;100
44127;BME280;29786;50.798;7.302;2023-08-06T00:55:35;98110;;;15.43;100
44127;BME280;29786;50.798;7.302;2023-08-06T00:56:36;98110;;;15.45;100
44127;BME280;29786;50.798;7.302;2023-08-06T00:57:35;98110;;;15.48;100
44127;BME280;29786;50.798;7.302;2023-08-06T00:58:36;98110;;;15.43;100
44127;BME280;29786;50.798;7.302;2023-08-06T00:59:36;98110;;;15.38;100
44127;BME280;29786;50.798;7.302;2023-08-06T01:00:35;98110;;;15.31;100
44127;BME280;29786;50.798;7.302;2023-08-06T01:01:37;98120;;;15.35;100
44127;BME280;29786;50.798;7.302;2023-08-06T01:02:36;98120;;;15.37;100
44127;BME280;29786;50.798;7.302;2023-08-06T01:03:36;98120;;;15.31;100
44127;BME280;29786;50.798;7.302;2023-08-06T01:04:36;98110;;;15.33;100
44127;BME280;29786;50.798;7.302;2023-08-06T01:05:35;98120;;;15.39;100
44127;BME280;29786;50.798;7.302;2023-08-06T01:06:40;98120;;;15.37;100
44127;BME280;29786;50.798;7.302;2023-08-06T01:07:43;98120;;;15.31;100
44127;BME280;29786;50.798;7.302;2023-08-06T01:08:54;98120;;;15.22;100
44127;BME280;29786;50.798;7.302;2023-08-06T01:09:43;98120;;;15.16;100
44127;BME280;29786;50.798;7.302;2023-08-06T01:10:40;98120;;;15.17;100
44127;BME280;29786;50.798;7.302;2023-08-06T01:11:38;98120;;;15.24;100
44127;BME280;29786;50.798;7.302;2023-08-06T01:12:53;98120;;;15.31;100
44127;BME280;29786;50.798;7.302;2023-08-06T01:13:45;98120;;;15.28;100
44127;BME280;29786;50.798;7.302;2023-08-06T01:15:38;98120;;;15.35;100
44127;BME280;29786;50.798;7.302;2023-08-06T01:15:41;98120;;;15.37;100
44127;BME280;29786;50.798;7.302;2023-08-06T01:16:35;98110;;;15.49;100
44127;BME280;29786;50.798;7.302;2023-08-06T01:17:35;98110;;;15.52;100
44127;BME280;29786;50.798;7.302;2023-08-06T01:18:35;98110;;;15.63;100
44127;BME280;29786;50.798;7.302;2023-08-06T01:19:35;98110;;;15.56;100
44127;BME280;29786;50.798;7.302;2023-08-06T01:20:36;98110;;;15.54;100
44127;BME280;29786;50.798;7.302;2023-08-06T01:21:35;98110;;;15.57;100
44127;BME280;29786;50.798;7.302;2023-08-06T01:22:36;98110;;;15.51;100
44127;BME280;29786;50.798;7.302;2023-08-06T01:23:35;98110;;;15.46;100
44127;BME280;29786;50.798;7.302;2023-08-06T01:24:36;98100;;;15.4;100
44127;BME280;29786;50.798;7.302;2023-08-06T01:25:40;98100;;;15.39;100
44127;BME280;29786;50.798;7.302;2023-08-06T01:26:43;98100;;;15.45;100
44127;BME280;29786;50.798;7.302;2023-08-06T01:27:55;98100;;;15.43;100
44127;BME280;29786;50.798;7.302;2023-08-06T01:28:42;98100;;;15.36;100
44127;BME280;29786;50.798;7.302;2023-08-06T01:29:38;98100;;;15.4;100
44127;BME280;29786;50.798;7.302;2023-08-06T01:30:37;98100;;;15.38;100
44127;BME280;29786;50.798;7.302;2023-08-06T01:31:37;98100;;;15.37;100
44127;BME280;29786;50.798;7.302;2023-08-06T01:32:36;98100;;;15.41;100
44127;BME280;29786;50.798;7.302;2023-08-06T01:33:36;98100;;;15.39;100
44127;BME280;29786;50.798;7.302;2023-08-06T01:34:36;98100;;;15.35;100
44127;BME280;29786;50.798;7.302;2023-08-06T01:35:36;98090;;;15.44;100
44127;BME280;29786;50.798;7.302;2023-08-06T01:36:35;98090;;;15.49;100
44127;BME280;29786;50.798;7.302;2023-08-06T01:37:35;98100;;;15.51;100
44127;BME280;29786;50.798;7.302;2023-08-06T01:38:35;98090;;;15.52;100
44127;BME280;29786;50.798;7.302;2023-08-06T01:39:36;98100;;;15.55;100
44127;BME280;29786;50.798;7.302;2023-08-06T01:40:36;98090;;;15.52;100
44127;BME280;29786;50.798;7.302;2023-08-06T01:41:34;98090;;;15.47;100
44127;BME280;29786;50.798;7.302;2023-08-06T01:42:35;98090;;;15.47;100
44127;BME280;29786;50.798;7.302;2023-08-06T01:43:36;98090;;;15.5;100
44127;BME280;29786;50.798;7.302;2023-08-06T01:44:35;98090;;;15.45;100
44127;BME280;29786;50.798;7.302;2023-08-06T01:45:35;98090;;;15.35;100
44127;BME280;29786;50.798;7.302;2023-08-06T01:46:35;98090;;;15.43;100
44127;BME280;29786;50.798;7.302;2023-08-06T01:47:36;98090;;;15.36;100
44127;BME280;29786;50.798;7.302;2023-08-06T01:48:37;98080;;;15.32;100
44127;BME280;29786;50.798;7.302;2023-08-06T01:49:36;98080;;;15.37;100
44127;BME280;29786;50.798;7.302;2023-08-06T01:50:35;98080;;;15.34;100
44127;BME280;29786;50.798;7.302;2023-08-06T01:51:36;98070;;;15.25;100
44127;BME280;29786;50.798;7.302;2023-08-06T01:52:36;98070;;;15.15;100
44127;BME280;29786;50.798;7.302;2023-08-06T01:53:35;98070;;;15.15;100
44127;BME280;29786;50.798;7.302;2023-08-06T01:54:35;98060;;;15.13;100
44127;BME280;29786;50.798;7.302;2023-08-06T01:55:36;98060;;;15.1;100
44127;BME280;29786;50.798;7.302;2023-08-06T01:56:36;98060;;;15.13;100
44127;BME280;29786;50.798;7.302;2023-08-06T01:57:36;98060;;;15.09;100
44127;BME280;29786;50.798;7.302;2023-08-06T01:58:36;98060;;;14.98;100
44127;BME280;29786;50.798;7.302;2023-08-06T01:59:36;98060;;;15.02;100
44127;BME280;29786;50.798;7.302;2023-08-06T02:00:36;98060;;;14.98;100
44127;BME280;29786;50.798;7.302;2023-08-06T02:01:36;98060;;;14.96;100
44127;BME280;29786;50.798;7.302;2023-08-06T02:03:35;98070;;;14.98;100
44127;BME280;29786;50.798;7.302;2023-08-06T02:04:36;98070;;;14.94;100
44127;BME280;29786;50.798;7.302;2023-08-06T02:05:35;98070;;;14.87;100
44127;BME280;29786;50.798;7.302;2023-08-06T02:06:36;98070;;;14.89;100
44127;BME280;29786;50.798;7.302;2023-08-06T02:07:36;98060;;;14.79;100
44127;BME280;29786;50.798;7.302;2023-08-06T02:08:36;98060;;;14.72;100
44127;BME280;29786;50.798;7.302;2023-08-06T02:09:35;98060;;;14.74;100
44127;BME280;29786;50.798;7.302;2023-08-06T02:10:36;98060;;;14.74;100
44127;BME280;29786;50.798;7.302;2023-08-06T02:11:36;98060;;;14.68;100
44127;BME280;29786;50.798;7.302;2023-08-06T02:12:35;98060;;;14.59;100
44127;BME280;29786;50.798;7.302;2023-08-06T02:13:36;98060;;;14.68;100
44127;BME280;29786;50.798;7.302;2023-08-06T02:14:36;98060;;;14.73;100
44127;BME280;29786;50.798;7.302;2023-08-06T02:15:35;98060;;;14.68;100
44127;BME280;29786;50.798;7.302;2023-08-06T02:16:36;98060;;;14.63;100
44127;BME280;29786;50.798;7.302;2023-08-06T02:17:35;98050;;;14.5;100
44127;BME280;29786;50.798;7.302;2023-08-06T02:18:35;98050;;;14.47;100
44127;BME280;29786;50.798;7.302;2023-08-06T02:19:35;98050;;;14.5;100
44127;BME280;29786;50.798;7.302;2023-08-06T02:20:36;98050;;;14.53;100
44127;BME280;29786;50.798;7.302;2023-08-06T02:21:36;98050;;;14.58;100
44127;BME280;29786;50.798;7.302;2023-08-06T02:22:35;98050;;;14.53;100
44127;BME280;29786;50.798;7.302;2023-08-06T02:23:35;98050;;;14.56;100
44127;BME280;29786;50.798;7.302;2023-08-06T02:24:35;98050;;;14.61;100
44127;BME280;29786;50.798;7.302;2023-08-06T02:25:36;98050;;;14.66;100
44127;BME280;29786;50.798;7.302;2023-08-06T02:27:36;98050;;;14.77;100
44127;BME280;29786;50.798;7.302;2023-08-06T02:28:35;98060;;;14.83;100
44127;BME280;29786;50.798;7.302;2023-08-06T02:29:35;98050;;;14.85;100
44127;BME280;29786;50.798;7.302;2023-08-06T02:30:36;98050;;;14.89;100
44127;BME280;29786;50.798;7.302;2023-08-06T02:31:35;98050;;;14.92;100
44127;BME280;29786;50.798;7.302;2023-08-06T02:32:35;98050;;;14.95;100
44127;BME280;29786;50.798;7.302;2023-08-06T02:33:35;98050;;;14.87;100
44127;BME280;29786;50.798;7.302;2023-08-06T02:34:35;98050;;;14.85;100
44127;BME280;29786;50.798;7.302;2023-08-06T02:35:36;98050;;;14.83;100
44127;BME280;29786;50.798;7.302;2023-08-06T02:36:36;98050;;;14.83;100
44127;BME280;29786;50.798;7.302;2023-08-06T02:37:35;98050;;;14.91;100
44127;BME280;29786;50.798;7.302;2023-08-06T02:38:35;98040;;;14.89;100
44127;BME280;29786;50.798;7.302;2023-08-06T02:39:36;98040;;;14.8;100
44127;BME280;29786;50.798;7.302;2023-08-06T02:40:36;98040;;;14.71;100
44127;BME280;29786;50.798;7.302;2023-08-06T02:41:35;98040;;;14.8;100
44127;BME280;29786;50.798;7.302;2023-08-06T02:42:35;98040;;;14.8;100
44127;BME280;29786;50.798;7.302;2023-08-06T02:43:36;98040;;;14.84;100
44127;BME280;29786;50.798;7.302;2023-08-06T02:44:35;98040;;;14.89;100
44127;BME280;29786;50.798;7.302;2023-08-06T02:45:35;98040;;;14.83;100
44127;BME280;29786;50.798;7.302;2023-08-06T02:46:36;98030;;;14.8;100
44127;BME280;29786;50.798;7.302;2023-08-06T02:47:35;98030;;;14.81;100
44127;BME280;29786;50.798;7.302;2023-08-06T02:48:35;98030;;;14.81;100
44127;BME280;29786;50.798;7.302;2023-08-06T02:49:35;98030;;;14.8;100
44127;BME280;29786;50.798;7.302;2023-08-06T02:50:37;98030;;;14.84;100
44127;BME280;29786;50.798;7.302;2023-08-06T02:51:35;98030;;;14.88;100
44127;BME280;29786;50.798;7.302;2023-08-06T02:52:36;98020;;;14.82;100
44127;BME280;29786;50.798;7.302;2023-08-06T02:53:35;98020;;;14.8;100
44127;BME280;29786;50.798;7.302;2023-08-06T02:54:36;98020;;;14.76;100
44127;BME280;29786;50.798;7.302;2023-08-06T02:55:35;98020;;;14.82;100
44127;BME280;29786;50.798;7.302;2023-08-06T02:56:36;98020;;;14.86;100
44127;BME280;29786;50.798;7.302;2023-08-06T02:57:35;98020;;;14.83;100
44127;BME280;29786;50.798;7.302;2023-08-06T02:58:35;98020;;;14.81;100
44127;BME280;29786;50.798;7.302;2023-08-06T02:59:35;98020;;;14.77;100
44127;BME280;29786;50.798;7.302;2023-08-06T03:00:35;98020;;;14.69;100
44127;BME280;29786;50.798;7.302;2023-08-06T03:01:36;98020;;;14.68;100
44127;BME280;29786;50.798;7.302;2023-08-06T03:02:35;98020;;;14.55;100
44127;BME280;29786;50.798;7.302;2023-08-06T03:03:35;98020;;;14.63;100
44127;BME280;29786;50.798;7.302;2023-08-06T03:04:37;98020;;;14.66;100
44127;BME280;29786;50.798;7.302;2023-08-06T03:05:36;98020;;;14.64;100
44127;BME280;29786;50.798;7.302;2023-08-06T03:06:35;98020;;;14.62;100
44127;BME280;29786;50.798;7.302;2023-08-06T03:07:35;98020;;;14.78;100
44127;BME280;29786;50.798;7.302;2023-08-06T03:08:36;98020;;;14.81;100
44127;BME280;29786;50.798;7.302;2023-08-06T03:09:35;98010;;;14.74;100
44127;BME280;29786;50.798;7.302;2023-08-06T03:10:36;98010;;;14.72;100
44127;BME280;29786;50.798;7.302;2023-08-06T03:11:36;98010;;;14.75;100
44127;BME280;29786;50.798;7.302;2023-08-06T03:12:35;98010;;;14.84;100
44127;BME280;29786;50.798;7.302;2023-08-06T03:13:36;98010;;;14.93;100
44127;BME280;29786;50.798;7.302;2023-08-06T03:14:35;98010;;;15;100
44127;BME280;29786;50.798;7.302;2023-08-06T03:15:36;98010;;;15.03;100
44127;BME280;29786;50.798;7.302;2023-08-06T03:16:35;98010;;;15.01;100
44127;BME280;29786;50.798;7.302;2023-08-06T03:17:36;98010;;;14.93;100
44127;BME280;29786;50.798;7.302;2023-08-06T03:18:36;98000;;;14.91;100
44127;BME280;29786;50.798;7.302;2023-08-06T03:19:35;98000;;;14.83;100
44127;BME280;29786;50.798;7.302;2023-08-06T03:20:35;98010;;;14.82;100
44127;BME280;29786;50.798;7.302;2023-08-06T03:21:36;98010;;;14.86;100
44127;BME280;29786;50.798;7.302;2023-08-06T03:22:36;98010;;;14.87;100
44127;BME280;29786;50.798;7.302;2023-08-06T03:23:36;98000;;;14.83;100
44127;BME280;29786;50.798;7.302;2023-08-06T03:24:35;98000;;;14.77;100
44127;BME280;29786;50.798;7.302;2023-08-06T03:25:35;98000;;;14.87;100
44127;BME280;29786;50.798;7.302;2023-08-06T03:26:35;98000;;;14.85;100
44127;BME280;29786;50.798;7.302;2023-08-06T03:27:35;98000;;;14.79;100
44127;BME280;29786;50.798;7.302;2023-08-06T03:28:36;98000;;;14.74;100
44127;BME280;29786;50.798;7.302;2023-08-06T03:29:37;98000;;;14.77;100
44127;BME280;29786;50.798;7.302;2023-08-06T03:30:35;98000;;;14.86;100
44127;BME280;29786;50.798;7.302;2023-08-06T03:31:36;98000;;;14.78;100
44127;BME280;29786;50.798;7.302;2023-08-06T03:32:36;98000;;;14.67;100
44127;BME280;29786;50.798;7.302;2023-08-06T03:33:35;97990;;;14.62;100
44127;BME280;29786;50.798;7.302;2023-08-06T03:34:35;97990;;;14.66;100
44127;BME280;29786;50.798;7.302;2023-08-06T03:35:34;97990;;;14.68;100
44127;BME280;29786;50.798;7.302;2023-08-06T03:36:35;97990;;;14.65;100
44127;BME280;29786;50.798;7.302;2023-08-06T03:37:36;97990;;;14.59;100
44127;BME280;29786;50.798;7.302;2023-08-06T03:38:36;97990;;;14.56;100
44127;BME280;29786;50.798;7.302;2023-08-06T03:39:36;97990;;;14.66;100
44127;BME280;29786;50.798;7.302;2023-08-06T03:40:36;97980;;;14.65;100
44127;BME280;29786;50.798;7.302;2023-08-06T03:41:37;97980;;;14.62;100
44127;BME280;29786;50.798;7.302;2023-08-06T03:42:35;97980;;;14.65;100
44127;BME280;29786;50.798;7.302;2023-08-06T03:43:35;97980;;;14.66;100
44127;BME280;29786;50.798;7.302;2023-08-06T03:44:35;97980;;;14.67;100
44127;BME280;29786;50.798;7.302;2023-08-06T03:45:36;97980;;;14.74;100
44127;BME280;29786;50.798;7.302;2023-08-06T03:46:35;97980;;;14.74;100
44127;BME280;29786;50.798;7.302;2023-08-06T03:47:35;97980;;;14.68;100
44127;BME280;29786;50.798;7.302;2023-08-06T03:48:35;97980;;;14.72;100
44127;BME280;29786;50.798;7.302;2023-08-06T03:49:36;97980;;;14.68;100
44127;BME280;29786;50.798;7.302;2023-08-06T03:50:36;97980;;;14.63;100
44127;BME280;29786;50.798;7.302;2023-08-06T03:51:35;97980;;;14.64;100
44127;BME280;29786;50.798;7.302;2023-08-06T03:52:36;97980;;;14.63;100
44127;BME280;29786;50.798;7.302;2023-08-06T03:53:35;97980;;;14.79;100
44127;BME280;29786;50.798;7.302;2023-08-06T03:54:36;97980;;;14.82;100
44127;BME280;29786;50.798;7.302;2023-08-06T03:55:35;97980;;;14.82;100
44127;BME280;29786;50.798;7.302;2023-08-06T03:56:36;97980;;;14.89;100
44127;BME280;29786;50.798;7.302;2023-08-06T03:57:35;97980;;;14.82;100
44127;BME280;29786;50.798;7.302;2023-08-06T03:58:35;97980;;;14.78;100
44127;BME280;29786;50.798;7.302;2023-08-06T03:59:36;97980;;;14.76;100
44127;BME280;29786;50.798;7.302;2023-08-06T04:00:35;97980;;;14.8;100
44127;BME280;29786;50.798;7.302;2023-08-06T04:01:36;97980;;;14.75;100
44127;BME280;29786;50.798;7.302;2023-08-06T04:02:35;97980;;;14.71;100
44127;BME280;29786;50.798;7.302;2023-08-06T04:03:35;97980;;;14.63;100
44127;BME280;29786;50.798;7.302;2023-08-06T04:04:36;97970;;;14.65;100
44127;BME280;29786;50.798;7.302;2023-08-06T04:05:36;97970;;;14.64;100
44127;BME280;29786;50.798;7.302;2023-08-06T04:06:36;97970;;;14.67;100
44127;BME280;29786;50.798;7.302;2023-08-06T04:07:36;97980;;;14.78;100
44127;BME280;29786;50.798;7.302;2023-08-06T04:08:35;97970;;;14.73;100
44127;BME280;29786;50.798;7.302;2023-08-06T04:09:50;97980;;;14.83;100
44127;BME280;29786;50.798;7.302;2023-08-06T04:10:36;97980;;;14.86;100
44127;BME280;29786;50.798;7.302;2023-08-06T04:11:35;97980;;;14.86;100
44127;BME280;29786;50.798;7.302;2023-08-06T04:12:35;97980;;;14.77;100
44127;BME280;29786;50.798;7.302;2023-08-06T04:13:36;97970;;;14.72;100
44127;BME280;29786;50.798;7.302;2023-08-06T04:14:35;97970;;;14.79;100
44127;BME280;29786;50.798;7.302;2023-08-06T04:15:36;97970;;;14.77;100
44127;BME280;29786;50.798;7.302;2023-08-06T04:16:36;97970;;;14.8;100
44127;BME280;29786;50.798;7.302;2023-08-06T04:17:36;97970;;;14.77;100
44127;BME280;29786;50.798;7.302;2023-08-06T04:18:36;97970;;;14.75;100
44127;BME280;29786;50.798;7.302;2023-08-06T04:19:35;97970;;;14.74;100
44127;BME280;29786;50.798;7.302;2023-08-06T04:20:42;97970;;;14.78;100
44127;BME280;29786;50.798;7.302;2023-08-06T04:21:36;97970;;;14.72;100
44127;BME280;29786;50.798;7.302;2023-08-06T04:22:35;97970;;;14.55;100
44127;BME280;29786;50.798;7.302;2023-08-06T04:23:36;97960;;;14.49;100
44127;BME280;29786;50.798;7.302;2023-08-06T04:24:36;97970;;;14.45;100
44127;BME280;29786;50.798;7.302;2023-08-06T04:25:36;97960;;;14.47;100
44127;BME280;29786;50.798;7.302;2023-08-06T04:26:35;97960;;;14.44;100
44127;BME280;29786;50.798;7.302;2023-08-06T04:27:35;97960;;;14.49;100
44127;BME280;29786;50.798;7.302;2023-08-06T04:28:36;97960;;;14.57;100
44127;BME280;29786;50.798;7.302;2023-08-06T04:29:35;97960;;;14.68;100
44127;BME280;29786;50.798;7.302;2023-08-06T04:30:36;97960;;;14.69;100
44127;BME280;29786;50.798;7.302;2023-08-06T04:31:35;97960;;;14.72;100
44127;BME280;29786;50.798;7.302;2023-08-06T04:32:36;97960;;;14.77;100
44127;BME280;29786;50.798;7.302;2023-08-06T04:33:35;97960;;;14.74;100
44127;BME280;29786;50.798;7.302;2023-08-06T04:34:35;97960;;;14.68;100
44127;BME280;29786;50.798;7.302;2023-08-06T04:35:35;97960;;;14.71;100
44127;BME280;29786;50.798;7.302;2023-08-06T04:36:35;97960;;;14.76;100
44127;BME280;29786;50.798;7.302;2023-08-06T04:37:35;97960;;;14.8;100
44127;BME280;29786;50.798;7.302;2023-08-06T04:38:35;97960;;;14.78;100
44127;BME280;29786;50.798;7.302;2023-08-06T04:39:36;97960;;;14.75;100
44127;BME280;29786;50.798;7.302;2023-08-06T04:40:35;97960;;;14.8;100
44127;BME280;29786;50.798;7.302;2023-08-06T04:41:36;97960;;;14.78;100
44127;BME280;29786;50.798;7.302;2023-08-06T04:42:35;97960;;;14.83;100
44127;BME280;29786;50.798;7.302;2023-08-06T04:43:35;97960;;;14.86;100
44127;BME280;29786;50.798;7.302;2023-08-06T04:44:36;97960;;;14.83;100
44127;BME280;29786;50.798;7.302;2023-08-06T04:45:36;97960;;;14.83;100
44127;BME280;29786;50.798;7.302;2023-08-06T04:46:35;97960;;;14.8;100
44127;BME280;29786;50.798;7.302;2023-08-06T04:47:36;97960;;;14.78;100
44127;BME280;29786;50.798;7.302;2023-08-06T04:48:35;97950;;;14.72;100
44127;BME280;29786;50.798;7.302;2023-08-06T04:49:35;97960;;;14.73;100
44127;BME280;29786;50.798;7.302;2023-08-06T04:50:36;97960;;;14.8;100
44127;BME280;29786;50.798;7.302;2023-08-06T04:51:35;97960;;;14.78;100
44127;BME280;29786;50.798;7.302;2023-08-06T04:52:37;97960;;;14.89;100
44127;BME280;29786;50.798;7.302;2023-08-06T04:53:35;97960;;;14.88;100
44127;BME280;29786;50.798;7.302;2023-08-06T04:54:36;97960;;;14.92;100
44127;BME280;29786;50.798;7.302;2023-08-06T04:55:35;97960;;;14.91;100
44127;BME280;29786;50.798;7.302;2023-08-06T04:56:35;97960;;;14.95;100
44127;BME280;29786;50.798;7.302;2023-08-06T04:57:35;97960;;;14.93;100
44127;BME280;29786;50.798;7.302;2023-08-06T04:58:35;97970;;;14.99;100
44127;BME280;29786;50.798;7.302;2023-08-06T04:59:36;97970;;;15;100
44127;BME280;29786;50.798;7.302;2023-08-06T05:00:35;97970;;;14.95;100
44127;BME280;29786;50.798;7.302;2023-08-06T05:01:36;97960;;;14.92;100
44127;BME280;29786;50.798;7.302;2023-08-06T05:02:36;97960;;;14.93;100
44127;BME280;29786;50.798;7.302;2023-08-06T05:03:35;97960;;;14.99;100
44127;BME280;29786;50.798;7.302;2023-08-06T05:04:36;97960;;;15.04;100
44127;BME280;29786;50.798;7.302;2023-08-06T05:05:36;97960;;;15.03;100
44127;BME280;29786;50.798;7.302;2023-08-06T05:06:36;97960;;;14.98;100
44127;BME280;29786;50.798;7.302;2023-08-06T05:07:35;97960;;;14.99;100
44127;BME280;29786;50.798;7.302;2023-08-06T05:08:35;97960;;;15.06;100
44127;BME280;29786;50.798;7.302;2023-08-06T05:09:36;97960;;;14.99;100
44127;BME280;29786;50.798;7.302;2023-08-06T05:10:36;97960;;;15.02;100
44127;BME280;29786;50.798;7.302;2023-08-06T05:11:36;97960;;;15.01;100
44127;BME280;29786;50.798;7.302;2023-08-06T05:12:35;97970;;;14.95;100
44127;BME280;29786;50.798;7.302;2023-08-06T05:13:35;97970;;;14.99;100
44127;BME280;29786;50.798;7.302;2023-08-06T05:14:35;97970;;;15.04;100
44127;BME280;29786;50.798;7.302;2023-08-06T05:15:35;97960;;;15.12;100
44127;BME280;29786;50.798;7.302;2023-08-06T05:16:35;97970;;;15.2;100
44127;BME280;29786;50.798;7.302;2023-08-06T05:17:35;97970;;;15.21;100
44127;BME280;29786;50.798;7.302;2023-08-06T05:18:35;97970;;;15.13;100
44127;BME280;29786;50.798;7.302;2023-08-06T05:19:35;97960;;;15.08;100
44127;BME280;29786;50.798;7.302;2023-08-06T05:20:36;97970;;;15.04;100
44127;BME280;29786;50.798;7.302;2023-08-06T05:21:36;97960;;;14.99;100
44127;BME280;29786;50.798;7.302;2023-08-06T05:22:39;97970;;;14.99;100
44127;BME280;29786;50.798;7.302;2023-08-06T05:23:41;97970;;;14.99;100
44127;BME280;29786;50.798;7.302;2023-08-06T05:24:48;97970;;;15.07;100
44127;BME280;29786;50.798;7.302;2023-08-06T05:25:43;97970;;;15.13;100
44127;BME280;29786;50.798;7.302;2023-08-06T05:26:41;97970;;;15.1;100
44127;BME280;29786;50.798;7.302;2023-08-06T05:27:41;97970;;;15.1;100
44127;BME280;29786;50.798;7.302;2023-08-06T05:28:41;97970;;;15.1;100
44127;BME280;29786;50.798;7.302;2023-08-06T05:29:41;97970;;;15.11;100
44127;BME280;29786;50.798;7.302;2023-08-06T05:30:41;97970;;;15.05;100
44127;BME280;29786;50.798;7.302;2023-08-06T05:31:41;97970;;;15.07;100
44127;BME280;29786;50.798;7.302;2023-08-06T05:32:41;97970;;;15.18;100
44127;BME280;29786;50.798;7.302;2023-08-06T05:34:10;97970;;;15.22;100
44127;BME280;29786;50.798;7.302;2023-08-06T05:34:41;97970;;;15.25;100
44127;BME280;29786;50.798;7.302;2023-08-06T05:35:41;97970;;;15.32;100
44127;BME280;29786;50.798;7.302;2023-08-06T05:36:41;97970;;;15.35;100
44127;BME280;29786;50.798;7.302;2023-08-06T05:37:41;97970;;;15.48;100
44127;BME280;29786;50.798;7.302;2023-08-06T05:38:41;97980;;;15.57;100
44127;BME280;29786;50.798;7.302;2023-08-06T05:39:55;97970;;;15.66;100
44127;BME280;29786;50.798;7.302;2023-08-06T05:40:41;97970;;;15.7;100
44127;BME280;29786;50.798;7.302;2023-08-06T05:41:41;97970;;;15.72;100
44127;BME280;29786;50.798;7.302;2023-08-06T05:42:41;97970;;;15.67;100